Time;durP1;ratioP1;P1;durP2;ratioP2;P2;SDS_P1;SDS_P2;PMS_P1;PMS_P2;Temp;Humidity;BMP_temperature;BMP_pressure;BME280_temperature;BME280_humidity;BME280_pressure;Samples;Min_cycle;Max_cycle;Signal;HPM_P1;HPM_P2
2022/04/25 04:06:12;;;;;;;8.17;7.37;;;8.00;99.90;;;;;;5219206;23;20235;-83
2022/04/25 04:08:42;;;;;;;8.53;7.53;;;8.00;99.90;;;;;;4857939;29;20241;-81
2022/04/25 04:11:10;;;;;;;9.00;8.10;;;8.00;99.90;;;;;;4858976;29;20315;-82
2022/04/25 04:13:38;;;;;;;8.53;7.60;;;8.10;99.90;;;;;;4862233;29;20552;-83
2022/04/25 04:16:06;;;;;;;9.30;8.30;;;8.10;99.90;;;;;;4862628;29;20206;-84
2022/04/25 04:18:34;;;;;;;9.07;8.17;;;8.00;99.90;;;;;;4862810;29;20920;-81
2022/04/25 04:21:03;;;;;;;10.17;8.40;;;8.00;99.90;;;;;;4862713;29;20243;-83
2022/04/25 04:23:35;;;;;;;9.03;8.13;;;8.00;99.90;;;;;;4872571;29;20234;-84
2022/04/25 04:26:03;;;;;;;9.90;8.90;;;8.00;99.90;;;;;;4881411;29;20248;-85
2022/04/25 04:28:31;;;;;;;9.50;8.13;;;8.00;99.90;;;;;;4880770;29;20206;-86
2022/04/25 04:30:59;;;;;;;9.90;8.90;;;8.00;99.90;;;;;;4881288;29;20240;-81
2022/04/25 04:33:28;;;;;;;12.43;9.73;;;8.00;99.90;;;;;;4880917;29;20668;-82
2022/04/25 04:38:56;;;;;;;11.80;9.23;;;8.00;99.90;;;;;;4854580;29;20763;-82
2022/04/25 04:41:24;;;;;;;10.90;9.77;;;8.00;99.90;;;;;;4880943;29;20345;-82
2022/04/25 04:43:52;;;;;;;11.97;9.50;;;8.10;99.90;;;;;;4887573;29;20266;-82
2022/04/25 04:46:20;;;;;;;10.83;9.27;;;8.00;99.90;;;;;;4883690;29;20586;-82
2022/04/25 04:48:48;;;;;;;10.53;9.43;;;7.90;99.90;;;;;;4884284;29;20307;-83
2022/04/25 04:51:16;;;;;;;10.80;9.70;;;7.90;99.90;;;;;;4886775;29;20250;-83
2022/04/25 04:53:44;;;;;;;9.83;8.80;;;7.80;99.90;;;;;;4887090;29;20217;-83
2022/04/25 04:56:15;;;;;;;10.40;9.30;;;7.80;99.90;;;;;;4892135;29;20262;-84
2022/04/25 04:58:43;;;;;;;10.60;9.50;;;7.70;99.90;;;;;;4884750;29;20211;-83
2022/04/25 05:01:11;;;;;;;11.50;10.30;;;7.80;99.90;;;;;;4884790;29;20298;-83
2022/04/25 05:03:41;;;;;;;10.83;9.57;;;7.70;99.90;;;;;;4886723;29;20218;-82
2022/04/25 05:06:09;;;;;;;11.63;9.83;;;7.70;99.90;;;;;;4885926;29;20239;-82
2022/04/25 05:08:38;;;;;;;11.47;10.27;;;7.80;99.90;;;;;;4887041;29;20230;-83
2022/04/25 05:11:08;;;;;;;11.90;10.07;;;7.80;99.90;;;;;;4883999;29;20270;-83
2022/04/25 05:13:38;;;;;;;11.93;10.47;;;7.80;99.90;;;;;;4884603;29;20723;-82
2022/04/25 05:16:06;;;;;;;10.97;9.87;;;7.80;99.90;;;;;;4882628;29;20741;-82
2022/04/25 05:18:34;;;;;;;12.93;10.57;;;7.80;99.90;;;;;;4881753;29;20673;-83
2022/04/25 05:21:05;;;;;;;12.23;10.97;;;7.80;99.90;;;;;;4881490;29;20240;-82
2022/04/25 05:23:33;;;;;;;11.50;10.30;;;7.90;99.90;;;;;;4855968;29;20291;-79
2022/04/25 05:26:01;;;;;;;11.97;10.73;;;7.90;99.90;;;;;;4859528;29;20290;-77
2022/04/25 05:28:31;;;;;;;12.00;10.77;;;8.00;99.90;;;;;;4857842;29;20231;-78
2022/04/25 05:31:01;;;;;;;12.63;11.00;;;7.90;99.90;;;;;;4873190;29;20246;-80
2022/04/25 05:33:31;;;;;;;13.03;11.73;;;8.00;99.90;;;;;;4843646;29;20753;-81
2022/04/25 05:35:59;;;;;;;14.03;12.23;;;8.00;99.90;;;;;;4853094;29;20252;-80
2022/04/25 05:38:27;;;;;;;13.07;11.77;;;8.00;99.90;;;;;;4861258;29;20298;-78
2022/04/25 05:40:56;;;;;;;14.00;12.60;;;8.00;99.90;;;;;;4857757;29;20238;-80
2022/04/25 05:43:25;;;;;;;15.10;13.50;;;8.00;99.90;;;;;;4855329;29;20310;-79
2022/04/25 05:45:53;;;;;;;14.63;13.13;;;8.10;99.90;;;;;;4861334;29;20258;-79
2022/04/25 05:53:54;;;;;;;15.30;13.73;;;8.40;99.90;;;;;;4861615;29;20199;-81
2022/04/25 05:56:23;;;;;;;14.20;12.70;;;8.70;99.90;;;;;;4858799;29;20238;-81
2022/04/25 05:58:51;;;;;;;14.10;12.60;;;8.80;99.90;;;;;;4869275;29;20243;-80
2022/04/25 06:01:19;;;;;;;13.97;12.47;;;9.00;99.90;;;;;;4860922;29;20689;-81
2022/04/25 06:03:48;;;;;;;15.37;13.40;;;9.00;99.90;;;;;;4861284;29;20212;-80
2022/04/25 06:06:20;;;;;;;15.50;12.87;;;9.10;99.90;;;;;;4855976;29;20254;-80
2022/04/25 06:08:49;;;;;;;14.23;12.73;;;9.20;99.90;;;;;;4868648;29;20218;-80
2022/04/25 06:11:53;;;;;;;15.33;13.73;;;9.10;99.90;;;;;;4869410;29;20218;-80
2022/04/25 06:14:22;;;;;;;14.80;13.30;;;9.10;99.90;;;;;;4869624;29;20298;-81
2022/04/25 06:16:50;;;;;;;14.77;13.37;;;9.10;99.90;;;;;;4879068;29;20566;-78
2022/04/25 06:19:20;;;;;;;16.13;14.27;;;9.00;99.90;;;;;;4877068;29;20219;-81
2022/04/25 06:21:48;;;;;;;16.20;14.60;;;9.10;99.90;;;;;;4876049;29;20768;-79
2022/04/25 06:24:16;;;;;;;16.60;14.80;;;9.20;99.90;;;;;;4872137;29;20231;-80
2022/04/25 06:26:49;;;;;;;16.20;14.50;;;9.30;99.90;;;;;;4860580;29;20808;-78
2022/04/25 06:29:17;;;;;;;17.47;15.67;;;9.30;99.90;;;;;;4850265;29;20211;-80
2022/04/25 06:31:45;;;;;;;17.07;15.37;;;9.30;99.90;;;;;;4860572;29;20307;-80
2022/04/25 06:34:14;;;;;;;16.80;15.10;;;9.40;99.90;;;;;;4862077;29;20730;-80
2022/04/25 06:36:43;;;;;;;18.00;16.20;;;9.40;99.90;;;;;;4860735;29;20218;-80
2022/04/25 06:39:11;;;;;;;16.30;14.70;;;9.40;99.90;;;;;;4861257;29;20287;-80
2022/04/25 06:41:41;;;;;;;17.60;15.83;;;9.40;99.90;;;;;;4869218;29;20227;-78
2022/04/25 06:44:09;;;;;;;18.03;16.23;;;9.30;99.90;;;;;;4878374;29;20238;-78
2022/04/25 06:46:42;;;;;;;18.40;16.50;;;9.20;99.90;;;;;;4872509;29;20254;-78
2022/04/25 06:49:24;;;;;;;18.40;16.20;;;9.10;99.90;;;;;;4878706;29;20749;-80
2022/04/25 06:51:56;;;;;;;18.90;17.00;;;9.10;99.90;;;;;;4875919;29;20214;-80
2022/04/25 06:54:25;;;;;;;18.90;17.00;;;9.00;99.90;;;;;;4878815;29;20250;-81
2022/04/25 06:56:55;;;;;;;18.60;16.80;;;9.00;99.90;;;;;;4879897;29;20258;-81
2022/04/25 06:59:24;;;;;;;19.67;17.63;;;9.00;99.90;;;;;;4880000;29;20218;-81
2022/04/25 07:01:52;;;;;;;18.77;16.97;;;9.00;99.90;;;;;;4879642;29;20202;-78
2022/04/25 07:04:20;;;;;;;19.13;17.13;;;9.10;99.90;;;;;;4878623;29;20206;-80
2022/04/25 07:06:49;;;;;;;18.73;16.83;;;9.00;99.90;;;;;;4872606;29;20780;-78
2022/04/25 07:09:20;;;;;;;19.70;17.77;;;9.10;99.90;;;;;;4866277;29;20237;-78
2022/04/25 07:11:48;;;;;;;19.87;17.80;;;9.10;99.90;;;;;;4856282;29;20691;-80
2022/04/25 07:14:18;;;;;;;18.87;16.97;;;9.10;99.90;;;;;;4876170;29;20301;-79
2022/04/25 07:16:48;;;;;;;18.60;16.70;;;9.10;99.90;;;;;;4878998;29;20206;-80
2022/04/25 07:19:22;;;;;;;18.83;16.90;;;9.20;99.90;;;;;;4860390;29;20234;-79
2022/04/25 07:30:14;;;;;;;19.80;17.80;;;9.60;99.90;;;;;;4859904;29;20218;-79
2022/04/25 07:32:42;;;;;;;18.83;16.83;;;9.70;99.90;;;;;;4860127;29;20203;-79
2022/04/25 07:35:11;;;;;;;17.77;16.07;;;9.80;99.90;;;;;;4859605;29;20226;-76
2022/04/25 07:37:39;;;;;;;15.97;14.47;;;10.10;99.90;;;;;;4859155;29;20242;-78
2022/04/25 07:40:10;;;;;;;16.33;14.73;;;10.40;99.90;;;;;;4852034;29;20677;-77
2022/04/25 07:42:39;;;;;;;15.13;13.73;;;10.60;99.90;;;;;;4856931;29;20253;-79
2022/04/25 07:45:08;;;;;;;14.20;12.80;;;10.90;99.90;;;;;;4852318;29;20258;-77
2022/04/25 07:47:36;;;;;;;14.10;12.43;;;11.20;99.90;;;;;;4860079;29;20244;-78
2022/04/25 07:50:06;;;;;;;13.40;12.20;;;11.60;99.90;;;;;;4863146;29;20207;-80
2022/04/25 07:52:34;;;;;;;12.60;11.47;;;11.90;99.90;;;;;;4863038;29;20219;-78
2022/04/25 07:55:02;;;;;;;12.27;11.03;;;12.20;99.90;;;;;;4863252;29;20302;-80
2022/04/25 07:57:32;;;;;;;12.47;11.37;;;12.30;99.90;;;;;;4863462;29;20301;-77
2022/04/25 08:00:00;;;;;;;13.03;11.80;;;12.30;99.90;;;;;;4867271;29;20313;-81
2022/04/25 08:02:28;;;;;;;13.00;11.23;;;12.10;99.90;;;;;;4854421;29;20219;-78
2022/04/25 08:04:56;;;;;;;12.40;11.27;;;12.00;99.90;;;;;;4862725;29;20658;-80
2022/04/25 08:07:28;;;;;;;12.33;11.23;;;11.70;99.90;;;;;;4863019;29;20238;-80
2022/04/25 08:09:56;;;;;;;13.13;11.83;;;11.40;99.90;;;;;;4863099;29;20282;-78
2022/04/25 08:18:01;;;;;;;13.13;11.87;;;10.90;99.90;;;;;;4863131;29;20226;-80
2022/04/25 08:20:30;;;;;;;13.90;12.60;;;11.10;99.90;;;;;;4863235;29;20211;-80
2022/04/25 08:22:59;;;;;;;12.90;11.70;;;11.30;99.90;;;;;;4863001;29;20218;-81
2022/04/25 08:25:31;;;;;;;12.00;10.80;;;11.30;99.90;;;;;;4863072;29;20309;-80
2022/04/25 08:28:01;;;;;;;11.53;10.47;;;11.50;99.90;;;;;;4863412;29;20274;-80
2022/04/25 08:30:30;;;;;;;10.47;9.50;;;11.40;99.90;;;;;;4863395;29;20219;-82
2022/04/25 08:32:59;;;;;;;10.97;9.87;;;11.40;99.90;;;;;;4862132;29;20267;-83
2022/04/25 08:35:27;;;;;;;11.80;10.13;;;11.30;99.90;;;;;;4862169;29;20673;-82
2022/04/25 08:37:55;;;;;;;11.23;10.00;;;11.10;99.90;;;;;;4863357;29;20203;-81
2022/04/25 08:40:25;;;;;;;11.57;10.47;;;11.10;99.90;;;;;;4861706;29;20211;-80
2022/04/25 08:42:54;;;;;;;11.30;10.20;;;11.00;99.90;;;;;;4863558;29;20211;-83
2022/04/25 08:45:23;;;;;;;10.73;9.73;;;11.10;99.90;;;;;;4863976;29;20210;-79
2022/04/25 08:47:55;;;;;;;11.43;10.33;;;11.10;99.90;;;;;;4884057;29;20230;-80
2022/04/25 08:50:24;;;;;;;13.97;10.77;;;11.10;99.90;;;;;;4880722;29;20247;-79
2022/04/25 08:53:17;;;;;;;11.73;10.63;;;11.10;99.90;;;;;;4882640;29;20297;-81
2022/04/25 08:55:46;;;;;;;10.90;9.83;;;11.20;99.90;;;;;;4887298;29;20214;-81
2022/04/25 08:58:16;;;;;;;10.37;9.37;;;11.40;99.90;;;;;;4880581;29;20318;-83
2022/04/25 09:00:44;;;;;;;9.90;9.00;;;11.60;99.90;;;;;;4861977;29;20219;-81
2022/04/25 09:03:18;;;;;;;9.33;8.43;;;12.10;99.90;;;;;;4855642;29;20670;-79
2022/04/25 09:05:47;;;;;;;9.10;8.30;;;12.80;99.90;;;;;;4868768;29;20321;-84
2022/04/25 09:08:15;;;;;;;8.77;7.97;;;13.30;99.90;;;;;;4877928;29;20294;-83
2022/04/25 09:10:44;;;;;;;7.93;7.20;;;13.70;99.90;;;;;;4880624;29;20206;-83
2022/04/25 09:13:13;;;;;;;7.63;6.93;;;14.90;99.90;;;;;;4888010;29;20211;-87
2022/04/25 09:15:42;;;;;;;7.00;6.40;;;15.70;99.90;;;;;;4882596;29;20217;-83
2022/04/25 09:18:14;;;;;;;7.67;6.97;;;16.20;99.90;;;;;;4882878;29;20214;-83
2022/04/25 09:20:45;;;;;;;7.33;6.63;;;16.00;99.90;;;;;;4877957;29;20206;-82
2022/04/25 09:23:22;;;;;;;7.40;6.70;;;15.60;99.90;;;;;;4877857;29;20621;-83
2022/04/25 09:26:11;;;;;;;8.33;7.63;;;15.30;99.90;;;;;;4871454;29;20246;-82
2022/04/25 09:28:49;;;;;;;8.00;7.20;;;15.20;99.90;;;;;;4874419;29;20234;-83
2022/04/25 09:31:19;;;;;;;8.13;7.30;;;15.10;99.90;;;;;;4876622;29;20287;-88
2022/04/25 09:33:47;;;;;;;8.40;7.60;;;15.10;99.90;;;;;;4864083;29;20207;-87
2022/04/25 09:36:21;;;;;;;8.70;7.90;;;14.60;99.90;;;;;;4865776;29;20218;-86
2022/04/25 09:38:50;;;;;;;8.20;7.50;;;14.90;99.90;;;;;;4864592;29;20264;-89
2022/04/25 09:41:18;;;;;;;8.20;7.40;;;16.40;99.90;;;;;;4863933;29;20664;-88
2022/04/25 09:43:47;;;;;;;9.80;9.00;;;17.40;99.90;;;;;;4870134;29;20251;-87
2022/04/25 09:46:17;;;;;;;10.53;9.53;;;17.20;99.90;;;;;;4866697;29;20733;-84
2022/04/25 09:49:02;;;;;;;10.63;9.73;;;16.50;99.90;;;;;;4866092;29;20259;-87
2022/04/25 09:51:33;;;;;;;11.27;10.27;;;16.20;99.90;;;;;;4864493;29;20241;-86
2022/04/25 09:54:03;;;;;;;11.90;10.80;;;14.80;99.90;;;;;;4864083;29;20218;-85
2022/04/25 09:56:34;;;;;;;11.90;10.90;;;14.10;99.90;;;;;;4863873;29;20302;-87
2022/04/25 09:59:05;;;;;;;13.07;11.87;;;13.90;99.90;;;;;;4865174;29;20221;-89
2022/04/25 10:01:37;;;;;;;11.33;10.33;;;13.70;99.90;;;;;;4856171;29;20298;-85
2022/04/25 10:04:07;;;;;;;11.20;10.10;;;14.40;99.90;;;;;;4866044;29;20199;-87
2022/04/25 10:06:36;;;;;;;9.90;9.00;;;15.10;99.90;;;;;;4868232;29;20215;-89
2022/04/25 10:09:06;;;;;;;9.23;8.33;;;15.80;99.90;;;;;;4869335;29;20277;-86
2022/04/25 10:11:36;;;;;;;9.90;9.07;;;16.00;99.90;;;;;;4873339;29;20214;-87
2022/04/25 10:14:04;;;;;;;9.90;8.90;;;15.40;99.90;;;;;;4874879;29;20215;-85
2022/04/25 10:16:35;;;;;;;9.63;8.73;;;15.30;99.90;;;;;;4875549;29;20234;-90
2022/04/25 10:19:04;;;;;;;10.53;9.53;;;15.40;99.90;;;;;;4877624;29;20255;-86
2022/04/25 10:21:36;;;;;;;10.20;9.30;;;15.60;99.90;;;;;;4876213;29;20275;-87
2022/04/25 10:24:07;;;;;;;10.10;9.20;;;15.60;99.90;;;;;;4869718;29;20200;-87
2022/04/25 10:26:36;;;;;;;10.13;9.23;;;15.80;99.90;;;;;;4874338;29;20270;-86
2022/04/25 10:29:11;;;;;;;9.63;8.83;;;15.80;99.90;;;;;;4866517;29;20310;-86
2022/04/25 10:31:43;;;;;;;9.03;8.17;;;15.60;99.90;;;;;;4873273;29;20677;-86
2022/04/25 10:34:14;;;;;;;8.87;8.07;;;15.80;99.90;;;;;;4869631;29;20935;-86
2022/04/25 10:36:47;;;;;;;9.33;8.43;;;16.00;99.90;;;;;;4864482;29;20235;-87
2022/04/25 10:39:19;;;;;;;9.87;8.97;;;16.00;99.90;;;;;;4863781;29;20195;-89
2022/04/25 10:44:53;;;;;;;8.97;8.17;;;16.60;99.90;;;;;;4860619;29;20215;-84
2022/04/25 10:47:24;;;;;;;9.90;8.37;;;16.80;99.90;;;;;;4860630;29;20642;-84
2022/04/25 10:50:04;;;;;;;9.27;8.37;;;16.70;99.90;;;;;;4860516;29;20246;-83
2022/04/25 10:53:01;;;;;;;8.70;7.87;;;16.70;99.90;;;;;;4843653;29;20284;-85
2022/04/25 10:55:43;;;;;;;7.87;7.17;;;17.40;99.90;;;;;;4860840;29;20307;-85
2022/04/25 10:58:19;;;;;;;8.53;7.73;;;17.30;99.90;;;;;;4861642;29;20611;-88
2022/04/25 11:00:57;;;;;;;7.80;7.10;;;17.20;99.90;;;;;;4861767;29;20210;-83
2022/04/25 11:03:33;;;;;;;8.17;7.37;;;17.70;99.90;;;;;;4860943;29;20306;-85
2022/04/25 11:06:06;;;;;;;8.37;7.57;;;18.70;99.90;;;;;;4860211;29;20313;-87
2022/04/25 11:08:40;;;;;;;8.10;7.30;;;19.50;99.90;;;;;;4860832;29;20219;-87
2022/04/25 11:11:18;;;;;;;8.97;8.17;;;19.60;97.70;;;;;;4860808;29;20263;-86
2022/04/25 11:14:13;;;;;;;8.17;7.47;;;18.60;97.10;;;;;;4860797;29;20215;-85
2022/04/25 11:16:41;;;;;;;8.07;7.37;;;18.80;99.60;;;;;;4860862;29;20220;-86
2022/04/25 11:19:13;;;;;;;8.43;7.63;;;18.70;99.30;;;;;;4861196;29;20753;-85
2022/04/25 11:21:49;;;;;;;8.03;7.33;;;18.20;99.90;;;;;;4860938;29;20630;-84
2022/04/25 11:24:28;;;;;;;8.23;7.53;;;17.80;99.90;;;;;;4860942;29;20222;-83
2022/04/25 11:27:00;;;;;;;8.80;7.90;;;17.80;99.00;;;;;;4861716;29;20230;-85
2022/04/25 11:29:29;;;;;;;9.57;7.60;;;17.90;99.90;;;;;;4860046;29;20225;-85
2022/04/25 11:32:27;;;;;;;7.67;6.97;;;17.70;99.90;;;;;;4860322;29;20641;-86
2022/04/25 11:35:01;;;;;;;6.80;6.20;;;17.70;99.90;;;;;;4852400;29;20215;-87
2022/04/25 11:37:30;;;;;;;9.20;8.40;;;17.60;99.90;;;;;;4862242;29;20294;-85
2022/04/25 11:40:01;;;;;;;8.60;7.80;;;17.30;99.90;;;;;;4860723;29;20214;-89
2022/04/25 11:42:32;;;;;;;9.00;8.20;;;16.80;99.90;;;;;;4861272;29;20240;-87
2022/04/25 11:45:01;;;;;;;7.93;7.23;;;16.40;99.90;;;;;;4860456;29;20207;-87
2022/04/25 11:47:31;;;;;;;8.53;7.57;;;16.20;99.90;;;;;;4860348;29;20239;-87
2022/04/25 11:50:02;;;;;;;7.90;7.10;;;15.80;99.90;;;;;;4860297;29;20245;-88
2022/04/25 11:52:30;;;;;;;7.90;7.20;;;16.00;99.90;;;;;;4859761;29;20202;-84
2022/04/25 11:54:59;;;;;;;7.97;7.20;;;16.10;99.90;;;;;;4859896;29;20268;-84
2022/04/25 11:57:28;;;;;;;7.43;6.73;;;16.60;99.90;;;;;;4859336;29;20841;-84
2022/04/25 12:00:13;;;;;;;9.40;8.50;;;16.90;99.90;;;;;;4873848;29;20290;-84
2022/04/25 12:02:42;;;;;;;8.00;7.20;;;16.90;99.90;;;;;;4878190;29;20591;-83
2022/04/25 12:05:12;;;;;;;7.67;6.87;;;16.60;99.90;;;;;;4877847;29;20253;-85
2022/04/25 12:16:04;;;;;;;7.43;6.63;;;17.30;99.90;;;;;;4859055;29;20223;-82
2022/04/25 12:18:34;;;;;;;8.30;7.50;;;17.30;99.90;;;;;;4859376;29;20696;-81
2022/04/25 12:21:05;;;;;;;9.17;7.33;;;17.00;99.90;;;;;;4858829;29;20215;-81
2022/04/25 12:23:34;;;;;;;8.33;7.53;;;17.50;99.90;;;;;;4859276;29;20290;-83
2022/04/25 12:26:06;;;;;;;7.93;7.13;;;17.20;99.90;;;;;;4859574;29;20223;-85
2022/04/25 12:28:37;;;;;;;7.70;7.00;;;17.70;99.90;;;;;;4859627;29;20243;-81
2022/04/25 12:31:09;;;;;;;7.80;7.00;;;17.90;99.90;;;;;;4859137;29;20227;-83
2022/04/25 12:33:40;;;;;;;7.90;7.10;;;18.00;99.90;;;;;;4860528;29;20260;-82
2022/04/25 12:36:11;;;;;;;7.87;7.17;;;18.00;98.90;;;;;;4862762;29;20534;-82
2022/04/25 12:38:44;;;;;;;8.53;7.00;;;18.10;97.70;;;;;;4862299;29;20594;-81
2022/04/25 12:41:22;;;;;;;8.03;7.23;;;18.20;99.60;;;;;;4862593;29;20203;-81
2022/04/25 12:43:53;;;;;;;9.27;7.60;;;17.70;98.40;;;;;;4860970;29;20231;-83
2022/04/25 12:46:44;;;;;;;9.07;8.27;;;17.20;98.90;;;;;;4873220;29;20251;-81
2022/04/25 12:49:14;;;;;;;7.87;7.07;;;17.40;99.90;;;;;;4868467;29;20330;-84
2022/04/25 12:51:45;;;;;;;8.13;7.33;;;17.60;99.60;;;;;;4874893;29;20207;-81
2022/04/25 12:54:27;;;;;;;7.83;7.03;;;17.80;98.80;;;;;;4876504;29;20202;-83
2022/04/25 12:57:10;;;;;;;8.93;6.70;;;18.00;99.90;;;;;;4877122;29;20203;-81
2022/04/25 12:59:39;;;;;;;7.70;6.40;;;17.20;99.10;;;;;;4877457;29;20211;-83
2022/04/25 13:02:12;;;;;;;7.27;6.57;;;17.50;99.90;;;;;;4880474;29;20270;-81
2022/04/25 13:04:50;;;;;;;7.10;6.40;;;17.50;98.90;;;;;;4880013;29;20238;-82
2022/04/25 13:07:18;;;;;;;6.87;5.77;;;17.20;99.90;;;;;;4878595;29;20629;-83
2022/04/25 13:09:48;;;;;;;6.80;6.10;;;17.50;99.90;;;;;;4879945;29;20229;-78
2022/04/25 13:12:20;;;;;;;7.50;6.47;;;17.80;99.90;;;;;;4880366;29;20209;-81
2022/04/25 13:14:48;;;;;;;7.63;6.60;;;17.30;98.00;;;;;;4884204;29;20207;-81
2022/04/25 13:17:18;;;;;;;7.73;7.03;;;16.80;99.60;;;;;;4885773;29;20214;-81
2022/04/25 13:19:47;;;;;;;6.70;6.10;;;16.30;98.40;;;;;;4883398;29;20248;-81
2022/04/25 13:22:16;;;;;;;7.77;6.93;;;16.50;99.40;;;;;;4880829;29;20214;-81
2022/04/25 13:24:45;;;;;;;7.27;6.57;;;16.70;99.90;;;;;;4877348;29;20242;-80
2022/04/25 13:27:14;;;;;;;6.50;5.90;;;16.90;99.90;;;;;;4882640;29;20681;-83
2022/04/25 13:29:42;;;;;;;6.67;6.03;;;17.40;98.70;;;;;;4881074;29;20290;-83
2022/04/25 13:32:12;;;;;;;6.67;6.00;;;17.20;98.50;;;;;;4880897;29;20624;-82
2022/04/25 13:34:42;;;;;;;7.23;6.10;;;17.10;98.10;;;;;;4880446;29;20214;-82
2022/04/25 13:37:11;;;;;;;6.67;5.93;;;17.50;99.90;;;;;;4880418;29;20255;-82
2022/04/25 13:39:40;;;;;;;6.93;5.97;;;17.40;99.10;;;;;;4874836;29;20588;-79
2022/04/25 13:42:08;;;;;;;6.37;5.60;;;17.50;97.70;;;;;;4861677;29;20310;-80
2022/04/25 13:44:38;;;;;;;6.40;5.80;;;17.70;99.30;;;;;;4859665;29;20211;-81
2022/04/25 13:47:07;;;;;;;6.03;5.43;;;18.00;96.90;;;;;;4861252;29;20211;-80
2022/04/25 13:49:35;;;;;;;6.33;5.73;;;17.90;99.20;;;;;;4866729;29;20259;-81
2022/04/25 13:52:06;;;;;;;6.50;5.80;;;17.80;98.40;;;;;;4880101;29;20753;-78
2022/04/25 13:54:35;;;;;;;6.97;6.33;;;17.80;96.80;;;;;;4880408;29;20226;-82
2022/04/25 13:57:05;;;;;;;6.83;6.17;;;17.90;98.20;;;;;;4876610;29;20807;-82
2022/04/25 13:59:35;;;;;;;5.93;5.43;;;17.90;96.20;;;;;;4879223;29;20262;-81
2022/04/25 14:04:46;;;;;;;5.87;5.00;;;17.30;97.00;;;;;;4877579;29;20301;-83
2022/04/25 14:07:15;;;;;;;6.20;5.60;;;16.80;97.50;;;;;;4879351;29;20239;-81
2022/04/25 14:09:44;;;;;;;6.70;6.00;;;16.90;98.10;;;;;;4879076;29;20685;-79
2022/04/25 14:12:13;;;;;;;6.23;5.63;;;17.10;97.70;;;;;;4879423;29;20261;-81
2022/04/25 14:14:42;;;;;;;6.27;5.67;;;17.30;96.60;;;;;;4866267;29;20221;-82
2022/04/25 14:17:11;;;;;;;5.97;5.37;;;17.10;96.80;;;;;;4860960;29;20219;-82
2022/04/25 14:19:39;;;;;;;6.07;5.47;;;17.20;97.50;;;;;;4860646;29;20219;-81
2022/04/25 14:22:08;;;;;;;6.37;5.13;;;17.10;96.30;;;;;;4861291;29;20584;-80
2022/04/25 14:24:37;;;;;;;5.80;5.20;;;17.30;97.90;;;;;;4860827;29;20219;-82
2022/04/25 14:27:05;;;;;;;5.80;5.30;;;17.00;97.10;;;;;;4862025;29;20211;-80
2022/04/25 14:29:33;;;;;;;5.83;5.33;;;16.70;97.00;;;;;;4860418;29;20211;-80
2022/04/25 14:32:01;;;;;;;6.50;5.63;;;16.50;97.80;;;;;;4860757;29;20274;-79
2022/04/25 14:34:33;;;;;;;5.87;5.33;;;16.80;97.00;;;;;;4861028;29;20215;-80
2022/04/25 14:37:02;;;;;;;5.60;5.00;;;16.90;95.80;;;;;;4861068;29;20294;-81
2022/04/25 14:39:33;;;;;;;5.30;4.80;;;17.10;98.20;;;;;;4861045;29;20226;-80
2022/04/25 14:42:02;;;;;;;6.23;5.17;;;17.00;97.10;;;;;;4860332;29;20210;-82
2022/04/25 14:44:32;;;;;;;6.83;5.23;;;17.10;97.80;;;;;;4860824;29;20546;-81
2022/04/25 14:47:03;;;;;;;6.00;5.40;;;16.70;96.80;;;;;;4865508;29;20215;-80
2022/04/25 14:55:17;;;;;;;5.40;4.73;;;17.10;96.40;;;;;;4831348;29;20212;-75
2022/04/25 14:57:48;;;;;;;5.20;4.70;;;16.90;96.10;;;;;;4853352;29;20701;-74
2022/04/25 15:00:18;;;;;;;5.70;4.73;;;16.70;96.30;;;;;;4859949;29;20654;-75
2022/04/25 15:02:46;;;;;;;4.93;4.43;;;16.80;97.00;;;;;;4860258;29;20676;-75
2022/04/25 15:05:16;;;;;;;6.83;4.40;;;16.70;95.40;;;;;;4859501;29;20242;-76
2022/04/25 15:07:44;;;;;;;5.73;4.50;;;16.60;96.50;;;;;;4859397;29;20250;-76
2022/04/25 15:10:13;;;;;;;4.63;4.23;;;16.60;96.80;;;;;;4861754;29;20211;-75
2022/04/25 15:12:41;;;;;;;5.00;4.60;;;16.50;96.80;;;;;;4860133;29;20647;-76
2022/04/25 15:15:12;;;;;;;7.60;4.93;;;16.30;96.70;;;;;;4862276;29;20223;-76
2022/04/25 15:17:40;;;;;;;6.77;4.70;;;16.10;96.20;;;;;;4861251;29;20207;-75
2022/04/25 15:20:10;;;;;;;6.57;4.90;;;16.00;97.50;;;;;;4860784;29;20260;-82
2022/04/25 15:22:38;;;;;;;6.30;5.27;;;16.00;97.10;;;;;;4860709;29;20287;-81
2022/04/25 15:25:06;;;;;;;6.40;5.20;;;15.70;97.40;;;;;;4860088;29;20298;-80
2022/04/25 15:27:36;;;;;;;5.77;5.17;;;15.70;98.60;;;;;;4860904;29;20242;-83
2022/04/25 15:30:05;;;;;;;5.43;4.90;;;15.70;98.30;;;;;;4866091;29;20226;-79
2022/04/25 15:32:35;;;;;;;6.27;4.90;;;15.50;98.10;;;;;;4872527;29;20214;-81
2022/04/25 15:35:03;;;;;;;5.60;4.50;;;15.30;98.60;;;;;;4868998;29;20244;-81
2022/04/25 15:37:31;;;;;;;5.30;4.80;;;15.20;99.10;;;;;;4873339;29;20238;-81
2022/04/25 15:40:00;;;;;;;5.50;5.00;;;15.10;99.00;;;;;;4871393;29;20666;-79
2022/04/25 15:42:28;;;;;;;5.80;5.20;;;14.90;99.40;;;;;;4865267;29;20210;-80
2022/04/25 15:44:57;;;;;;;5.47;4.87;;;14.90;99.90;;;;;;4881406;29;20208;-79
2022/04/25 15:47:25;;;;;;;6.07;4.93;;;15.10;99.90;;;;;;4876928;29;20229;-82
2022/04/25 15:49:54;;;;;;;6.60;5.30;;;15.00;99.90;;;;;;4879727;29;20215;-79
2022/04/25 15:52:22;;;;;;;5.27;4.70;;;15.20;99.90;;;;;;4874488;29;20239;-81
2022/04/25 15:57:44;;;;;;;5.87;4.80;;;15.10;99.90;;;;;;4859934;29;20262;-83
2022/04/25 16:00:14;;;;;;;5.13;4.47;;;15.10;99.90;;;;;;4862963;29;20215;-81
2022/04/25 16:02:43;;;;;;;7.13;5.50;;;15.00;99.90;;;;;;4864406;29;20554;-80
2022/04/25 16:05:12;;;;;;;5.50;5.00;;;14.90;99.90;;;;;;4859761;29;20222;-81
2022/04/25 16:07:41;;;;;;;5.23;4.73;;;14.60;99.90;;;;;;4860013;29;20219;-80
2022/04/25 16:10:10;;;;;;;6.33;4.90;;;14.60;99.90;;;;;;4863160;29;20301;-81
2022/04/25 16:12:38;;;;;;;5.27;4.77;;;14.40;99.90;;;;;;4862588;29;20637;-81
2022/04/25 16:15:07;;;;;;;5.00;4.50;;;14.20;99.90;;;;;;4863082;29;20305;-81
2022/04/25 16:17:35;;;;;;;4.83;4.33;;;14.20;99.90;;;;;;4862684;29;20682;-80
2022/04/25 16:20:07;;;;;;;6.13;4.37;;;14.10;99.90;;;;;;4863075;29;20238;-80
2022/04/25 16:22:36;;;;;;;6.33;4.60;;;14.10;99.90;;;;;;4862892;29;20272;-82
2022/04/25 16:25:05;;;;;;;5.43;4.50;;;13.90;99.90;;;;;;4862624;29;20650;-82
2022/04/25 16:27:34;;;;;;;4.80;4.40;;;13.90;99.90;;;;;;4862738;29;20222;-82
2022/04/25 16:30:03;;;;;;;6.03;4.53;;;13.80;99.90;;;;;;4862285;29;20219;-82
2022/04/25 16:32:32;;;;;;;5.60;4.70;;;13.70;99.90;;;;;;4862807;29;20316;-81
2022/04/25 16:35:00;;;;;;;5.20;4.60;;;13.60;99.90;;;;;;4862562;29;20310;-82
2022/04/25 16:37:28;;;;;;;5.20;4.70;;;13.50;99.90;;;;;;4862617;29;20673;-80
2022/04/25 16:39:57;;;;;;;4.90;4.40;;;13.50;99.90;;;;;;4859359;29;20662;-81
2022/04/25 16:42:25;;;;;;;5.90;4.57;;;13.50;99.90;;;;;;4864801;29;20686;-79
2022/04/25 16:44:55;;;;;;;6.00;4.70;;;13.40;99.90;;;;;;4862007;29;20302;-80
2022/04/25 16:47:25;;;;;;;5.20;4.70;;;13.30;99.90;;;;;;4857317;29;20238;-80
2022/04/25 16:49:53;;;;;;;6.00;4.80;;;13.40;99.90;;;;;;4863401;29;20219;-80
2022/04/25 16:52:21;;;;;;;5.30;4.80;;;13.30;99.90;;;;;;4862258;29;20293;-81
2022/04/25 16:54:49;;;;;;;6.17;4.90;;;13.20;99.90;;;;;;4862572;29;20250;-82
2022/04/25 16:57:19;;;;;;;6.30;5.67;;;13.20;99.90;;;;;;4862275;29;20311;-79
2022/04/25 16:59:47;;;;;;;5.90;5.30;;;13.30;99.90;;;;;;4846715;29;20674;-81
2022/04/25 17:02:15;;;;;;;6.40;5.20;;;13.10;99.90;;;;;;4846146;29;20636;-82
2022/04/25 17:04:44;;;;;;;6.57;5.63;;;13.00;99.90;;;;;;4849682;29;20228;-81
2022/04/25 17:07:12;;;;;;;6.93;5.87;;;13.00;99.90;;;;;;4851725;29;20271;-79
2022/04/25 17:09:40;;;;;;;6.80;6.10;;;12.80;99.90;;;;;;4864086;29;20246;-81
2022/04/25 17:12:09;;;;;;;7.27;5.73;;;12.80;99.90;;;;;;4862216;29;20281;-80
2022/04/25 17:14:38;;;;;;;7.13;6.17;;;12.60;99.90;;;;;;4862706;29;20250;-80
2022/04/25 17:17:06;;;;;;;8.93;8.13;;;12.50;99.90;;;;;;4861851;29;20242;-79
2022/04/25 17:19:35;;;;;;;10.13;9.13;;;12.40;99.90;;;;;;4862680;29;20222;-81
2022/04/25 17:22:04;;;;;;;11.80;10.70;;;12.20;99.90;;;;;;4862699;29;20269;-80
2022/04/25 17:24:33;;;;;;;11.13;10.13;;;12.00;99.90;;;;;;4861699;29;20288;-81
2022/04/25 17:27:02;;;;;;;12.10;10.97;;;11.80;99.90;;;;;;4861922;29;20250;-81
2022/04/25 17:29:30;;;;;;;12.00;10.73;;;11.50;99.90;;;;;;4861765;29;20257;-79
